sensor_id;sensor_type;location;lat;lon;timestamp;temperature;humidity
11426;DHT22;5769;47.998;7.788;2023-08-01T00:00:11;22.70;75.30
11426;DHT22;5769;47.998;7.788;2023-08-01T00:02:38;22.70;75.30
11426;DHT22;5769;47.998;7.788;2023-08-01T00:05:08;22.90;75.40
11426;DHT22;5769;47.998;7.788;2023-08-01T00:07:34;22.80;75.50
11426;DHT22;5769;47.998;7.788;2023-08-01T00:10:01;22.80;75.50
11426;DHT22;5769;47.998;7.788;2023-08-01T00:12:28;22.80;75.60
11426;DHT22;5769;47.998;7.788;2023-08-01T00:14:55;22.80;75.60
11426;DHT22;5769;47.998;7.788;2023-08-01T00:17:23;22.80;75.70
11426;DHT22;5769;47.998;7.788;2023-08-01T00:19:49;22.70;75.60
11426;DHT22;5769;47.998;7.788;2023-08-01T00:22:16;22.80;75.80
11426;DHT22;5769;47.998;7.788;2023-08-01T00:24:42;22.70;75.80
11426;DHT22;5769;47.998;7.788;2023-08-01T00:27:09;22.70;75.80
11426;DHT22;5769;47.998;7.788;2023-08-01T00:29:36;22.80;75.90
11426;DHT22;5769;47.998;7.788;2023-08-01T00:32:03;22.80;75.90
11426;DHT22;5769;47.998;7.788;2023-08-01T00:34:31;22.80;76.00
11426;DHT22;5769;47.998;7.788;2023-08-01T00:36:58;22.70;75.90
11426;DHT22;5769;47.998;7.788;2023-08-01T00:39:25;22.80;76.00
11426;DHT22;5769;47.998;7.788;2023-08-01T00:41:51;22.70;75.90
11426;DHT22;5769;47.998;7.788;2023-08-01T00:44:18;22.80;76.10
11426;DHT22;5769;47.998;7.788;2023-08-01T00:46:45;22.70;76.00
11426;DHT22;5769;47.998;7.788;2023-08-01T00:49:11;22.70;76.00
11426;DHT22;5769;47.998;7.788;2023-08-01T00:51:40;22.70;76.30
11426;DHT22;5769;47.998;7.788;2023-08-01T00:54:07;22.80;76.30
11426;DHT22;5769;47.998;7.788;2023-08-01T00:56:34;22.80;76.40
11426;DHT22;5769;47.998;7.788;2023-08-01T00:59:00;22.70;76.30
11426;DHT22;5769;47.998;7.788;2023-08-01T01:01:27;22.80;76.60
11426;DHT22;5769;47.998;7.788;2023-08-01T01:03:54;22.80;76.50
11426;DHT22;5769;47.998;7.788;2023-08-01T01:06:24;22.70;76.50
11426;DHT22;5769;47.998;7.788;2023-08-01T01:08:56;22.70;77.40
11426;DHT22;5769;47.998;7.788;2023-08-01T01:11:22;22.70;76.60
11426;DHT22;5769;47.998;7.788;2023-08-01T01:13:49;22.70;76.60
11426;DHT22;5769;47.998;7.788;2023-08-01T01:16:18;22.70;76.50
11426;DHT22;5769;47.998;7.788;2023-08-01T01:18:45;22.70;76.60
11426;DHT22;5769;47.998;7.788;2023-08-01T01:21:13;22.70;76.60
11426;DHT22;5769;47.998;7.788;2023-08-01T01:23:39;22.80;76.60
11426;DHT22;5769;47.998;7.788;2023-08-01T01:26:07;22.70;76.60
11426;DHT22;5769;47.998;7.788;2023-08-01T01:28:36;22.70;76.40
11426;DHT22;5769;47.998;7.788;2023-08-01T01:31:03;22.70;76.60
11426;DHT22;5769;47.998;7.788;2023-08-01T01:33:30;22.70;76.80
11426;DHT22;5769;47.998;7.788;2023-08-01T01:35:57;22.70;76.80
11426;DHT22;5769;47.998;7.788;2023-08-01T01:38:25;22.80;76.90
11426;DHT22;5769;47.998;7.788;2023-08-01T01:40:51;22.80;76.90
11426;DHT22;5769;47.998;7.788;2023-08-01T01:43:18;22.80;76.80
11426;DHT22;5769;47.998;7.788;2023-08-01T01:45:45;22.70;76.80
11426;DHT22;5769;47.998;7.788;2023-08-01T01:48:11;22.80;77.00
11426;DHT22;5769;47.998;7.788;2023-08-01T01:50:38;22.70;76.80
11426;DHT22;5769;47.998;7.788;2023-08-01T01:53:05;22.70;77.00
11426;DHT22;5769;47.998;7.788;2023-08-01T01:55:33;22.70;76.90
11426;DHT22;5769;47.998;7.788;2023-08-01T01:58:00;22.70;77.00
11426;DHT22;5769;47.998;7.788;2023-08-01T02:00:26;22.70;76.90
11426;DHT22;5769;47.998;7.788;2023-08-01T02:02:53;22.70;77.00
11426;DHT22;5769;47.998;7.788;2023-08-01T02:05:20;22.70;77.00
11426;DHT22;5769;47.998;7.788;2023-08-01T02:07:46;22.70;77.00
11426;DHT22;5769;47.998;7.788;2023-08-01T02:10:13;22.70;76.90
11426;DHT22;5769;47.998;7.788;2023-08-01T02:12:41;22.70;77.00
11426;DHT22;5769;47.998;7.788;2023-08-01T02:15:08;22.80;77.20
11426;DHT22;5769;47.998;7.788;2023-08-01T02:17:35;22.60;76.90
11426;DHT22;5769;47.998;7.788;2023-08-01T02:20:02;22.80;77.00
11426;DHT22;5769;47.998;7.788;2023-08-01T02:22:29;22.60;77.00
11426;DHT22;5769;47.998;7.788;2023-08-01T02:24:55;22.60;76.90
11426;DHT22;5769;47.998;7.788;2023-08-01T02:27:22;22.80;77.00
11426;DHT22;5769;47.998;7.788;2023-08-01T02:29:50;22.80;77.00
11426;DHT22;5769;47.998;7.788;2023-08-01T02:32:17;22.70;77.00
11426;DHT22;5769;47.998;7.788;2023-08-01T02:34:44;22.80;77.20
11426;DHT22;5769;47.998;7.788;2023-08-01T02:37:10;22.80;77.20
11426;DHT22;5769;47.998;7.788;2023-08-01T02:39:37;22.60;77.10
11426;DHT22;5769;47.998;7.788;2023-08-01T02:42:04;22.70;77.20
11426;DHT22;5769;47.998;7.788;2023-08-01T02:44:31;22.70;77.10
11426;DHT22;5769;47.998;7.788;2023-08-01T02:46:59;22.70;77.20
11426;DHT22;5769;47.998;7.788;2023-08-01T02:49:25;22.70;77.30
11426;DHT22;5769;47.998;7.788;2023-08-01T02:51:52;22.80;77.40
11426;DHT22;5769;47.998;7.788;2023-08-01T02:54:19;22.80;77.30
11426;DHT22;5769;47.998;7.788;2023-08-01T02:56:45;22.80;77.30
11426;DHT22;5769;47.998;7.788;2023-08-01T02:59:12;22.70;77.40
11426;DHT22;5769;47.998;7.788;2023-08-01T03:01:39;22.70;77.20
11426;DHT22;5769;47.998;7.788;2023-08-01T03:04:07;22.80;77.20
11426;DHT22;5769;47.998;7.788;2023-08-01T03:06:34;22.70;77.10
11426;DHT22;5769;47.998;7.788;2023-08-01T03:09:01;22.80;77.20
11426;DHT22;5769;47.998;7.788;2023-08-01T03:11:27;22.70;77.20
11426;DHT22;5769;47.998;7.788;2023-08-01T03:13:54;22.60;77.10
11426;DHT22;5769;47.998;7.788;2023-08-01T03:16:21;22.60;77.00
11426;DHT22;5769;47.998;7.788;2023-08-01T03:18:47;22.80;77.10
11426;DHT22;5769;47.998;7.788;2023-08-01T03:21:15;22.70;77.20
11426;DHT22;5769;47.998;7.788;2023-08-01T03:23:42;22.70;77.40
11426;DHT22;5769;47.998;7.788;2023-08-01T03:26:09;22.60;77.30
11426;DHT22;5769;47.998;7.788;2023-08-01T03:28:36;22.70;77.30
11426;DHT22;5769;47.998;7.788;2023-08-01T03:31:02;22.70;77.20
11426;DHT22;5769;47.998;7.788;2023-08-01T03:33:29;22.70;77.30
11426;DHT22;5769;47.998;7.788;2023-08-01T03:35:56;22.70;78.00
11426;DHT22;5769;47.998;7.788;2023-08-01T03:38:24;22.60;77.20
11426;DHT22;5769;47.998;7.788;2023-08-01T03:40:51;22.70;77.10
11426;DHT22;5769;47.998;7.788;2023-08-01T03:43:18;22.80;77.20
11426;DHT22;5769;47.998;7.788;2023-08-01T03:45:48;22.80;77.20
11426;DHT22;5769;47.998;7.788;2023-08-01T03:48:15;22.70;77.10
11426;DHT22;5769;47.998;7.788;2023-08-01T03:50:42;22.60;77.00
11426;DHT22;5769;47.998;7.788;2023-08-01T03:53:09;22.70;77.10
11426;DHT22;5769;47.998;7.788;2023-08-01T03:55:37;22.70;77.20
11426;DHT22;5769;47.998;7.788;2023-08-01T03:58:03;22.80;77.30
11426;DHT22;5769;47.998;7.788;2023-08-01T04:00:30;22.70;77.20
11426;DHT22;5769;47.998;7.788;2023-08-01T04:02:58;22.70;77.10
11426;DHT22;5769;47.998;7.788;2023-08-01T04:05:24;22.80;77.20
11426;DHT22;5769;47.998;7.788;2023-08-01T04:07:51;22.60;77.10
11426;DHT22;5769;47.998;7.788;2023-08-01T04:10:20;22.80;77.20
11426;DHT22;5769;47.998;7.788;2023-08-01T04:12:48;22.70;77.20
11426;DHT22;5769;47.998;7.788;2023-08-01T04:15:15;22.60;77.10
11426;DHT22;5769;47.998;7.788;2023-08-01T04:17:41;22.80;77.30
11426;DHT22;5769;47.998;7.788;2023-08-01T04:20:09;22.70;77.20
11426;DHT22;5769;47.998;7.788;2023-08-01T04:22:35;22.60;77.10
11426;DHT22;5769;47.998;7.788;2023-08-01T04:25:02;22.60;77.20
11426;DHT22;5769;47.998;7.788;2023-08-01T04:27:29;22.70;77.30
11426;DHT22;5769;47.998;7.788;2023-08-01T04:29:57;22.60;77.20
11426;DHT22;5769;47.998;7.788;2023-08-01T04:32:24;22.70;77.20
11426;DHT22;5769;47.998;7.788;2023-08-01T04:34:51;22.80;77.30
11426;DHT22;5769;47.998;7.788;2023-08-01T04:37:17;22.80;77.30
11426;DHT22;5769;47.998;7.788;2023-08-01T04:39:46;22.60;77.10
11426;DHT22;5769;47.998;7.788;2023-08-01T04:42:12;22.70;77.20
11426;DHT22;5769;47.998;7.788;2023-08-01T04:44:39;22.70;77.10
11426;DHT22;5769;47.998;7.788;2023-08-01T04:47:07;22.60;77.10
11426;DHT22;5769;47.998;7.788;2023-08-01T04:49:34;22.70;77.20
11426;DHT22;5769;47.998;7.788;2023-08-01T04:52:00;22.60;77.10
11426;DHT22;5769;47.998;7.788;2023-08-01T04:54:27;22.60;77.10
11426;DHT22;5769;47.998;7.788;2023-08-01T04:56:54;22.70;77.70
11426;DHT22;5769;47.998;7.788;2023-08-01T04:59:21;22.60;76.90
11426;DHT22;5769;47.998;7.788;2023-08-01T05:01:48;22.60;76.90
11426;DHT22;5769;47.998;7.788;2023-08-01T05:04:16;22.70;77.40
11426;DHT22;5769;47.998;7.788;2023-08-01T05:06:43;22.60;76.90
11426;DHT22;5769;47.998;7.788;2023-08-01T05:09:10;22.70;77.00
11426;DHT22;5769;47.998;7.788;2023-08-01T05:11:37;22.70;77.00
11426;DHT22;5769;47.998;7.788;2023-08-01T05:14:03;22.60;77.00
11426;DHT22;5769;47.998;7.788;2023-08-01T05:16:31;22.70;77.10
11426;DHT22;5769;47.998;7.788;2023-08-01T05:18:57;22.80;77.10
11426;DHT22;5769;47.998;7.788;2023-08-01T05:21:25;22.70;77.00
11426;DHT22;5769;47.998;7.788;2023-08-01T05:23:52;22.60;77.00
11426;DHT22;5769;47.998;7.788;2023-08-01T05:26:19;22.70;77.10
11426;DHT22;5769;47.998;7.788;2023-08-01T05:28:45;22.80;77.30
11426;DHT22;5769;47.998;7.788;2023-08-01T05:31:12;22.60;77.10
11426;DHT22;5769;47.998;7.788;2023-08-01T05:33:39;22.60;77.10
11426;DHT22;5769;47.998;7.788;2023-08-01T05:36:05;22.60;77.10
11426;DHT22;5769;47.998;7.788;2023-08-01T05:38:33;22.60;77.10
11426;DHT22;5769;47.998;7.788;2023-08-01T05:41:00;22.70;77.10
11426;DHT22;5769;47.998;7.788;2023-08-01T05:43:27;22.70;77.10
11426;DHT22;5769;47.998;7.788;2023-08-01T05:45:53;22.60;77.10
11426;DHT22;5769;47.998;7.788;2023-08-01T05:48:20;22.60;77.10
11426;DHT22;5769;47.998;7.788;2023-08-01T05:50:47;22.70;77.10
11426;DHT22;5769;47.998;7.788;2023-08-01T05:53:14;22.80;77.20
11426;DHT22;5769;47.998;7.788;2023-08-01T05:55:42;22.60;77.10
11426;DHT22;5769;47.998;7.788;2023-08-01T05:58:09;22.70;77.10
11426;DHT22;5769;47.998;7.788;2023-08-01T06:00:35;22.70;77.20
11426;DHT22;5769;47.998;7.788;2023-08-01T06:03:03;22.70;77.10
11426;DHT22;5769;47.998;7.788;2023-08-01T06:05:30;22.80;77.30
11426;DHT22;5769;47.998;7.788;2023-08-01T06:07:56;22.60;77.10
11426;DHT22;5769;47.998;7.788;2023-08-01T06:10:23;22.60;77.10
11426;DHT22;5769;47.998;7.788;2023-08-01T06:12:51;22.60;77.10
11426;DHT22;5769;47.998;7.788;2023-08-01T06:15:18;22.60;77.20
11426;DHT22;5769;47.998;7.788;2023-08-01T06:17:44;22.60;77.90
11426;DHT22;5769;47.998;7.788;2023-08-01T06:20:11;22.60;77.20
11426;DHT22;5769;47.998;7.788;2023-08-01T06:22:38;22.70;77.20
11426;DHT22;5769;47.998;7.788;2023-08-01T06:25:06;22.80;77.30
11426;DHT22;5769;47.998;7.788;2023-08-01T06:27:32;22.70;77.10
11426;DHT22;5769;47.998;7.788;2023-08-01T06:30:00;22.70;77.10
11426;DHT22;5769;47.998;7.788;2023-08-01T06:32:27;22.80;77.10
11426;DHT22;5769;47.998;7.788;2023-08-01T06:34:54;22.70;77.10
11426;DHT22;5769;47.998;7.788;2023-08-01T06:37:20;22.60;77.00
11426;DHT22;5769;47.998;7.788;2023-08-01T06:39:47;22.60;77.00
11426;DHT22;5769;47.998;7.788;2023-08-01T06:42:14;22.60;77.70
11426;DHT22;5769;47.998;7.788;2023-08-01T06:44:41;22.60;77.10
11426;DHT22;5769;47.998;7.788;2023-08-01T06:47:09;22.70;77.10
11426;DHT22;5769;47.998;7.788;2023-08-01T06:49:36;22.60;77.10
11426;DHT22;5769;47.998;7.788;2023-08-01T06:52:03;22.80;77.20
11426;DHT22;5769;47.998;7.788;2023-08-01T06:54:30;22.60;77.00
11426;DHT22;5769;47.998;7.788;2023-08-01T06:56:58;22.60;77.10
11426;DHT22;5769;47.998;7.788;2023-08-01T06:59:25;22.80;77.20
11426;DHT22;5769;47.998;7.788;2023-08-01T07:01:52;22.70;77.10
11426;DHT22;5769;47.998;7.788;2023-08-01T07:04:20;22.60;77.00
11426;DHT22;5769;47.998;7.788;2023-08-01T07:06:46;22.80;77.10
11426;DHT22;5769;47.998;7.788;2023-08-01T07:09:13;22.80;77.20
11426;DHT22;5769;47.998;7.788;2023-08-01T07:11:40;22.60;77.80
11426;DHT22;5769;47.998;7.788;2023-08-01T07:14:07;22.60;77.10
11426;DHT22;5769;47.998;7.788;2023-08-01T07:16:33;22.60;77.00
11426;DHT22;5769;47.998;7.788;2023-08-01T07:19:01;22.60;77.70
11426;DHT22;5769;47.998;7.788;2023-08-01T07:21:29;22.60;77.00
11426;DHT22;5769;47.998;7.788;2023-08-01T07:23:55;22.60;76.70
11426;DHT22;5769;47.998;7.788;2023-08-01T07:26:23;22.60;76.90
11426;DHT22;5769;47.998;7.788;2023-08-01T07:28:49;22.70;76.90
11426;DHT22;5769;47.998;7.788;2023-08-01T07:31:16;22.60;76.90
11426;DHT22;5769;47.998;7.788;2023-08-01T07:33:43;22.60;76.90
11426;DHT22;5769;47.998;7.788;2023-08-01T07:36:09;22.80;77.00
11426;DHT22;5769;47.998;7.788;2023-08-01T07:38:37;22.60;76.90
11426;DHT22;5769;47.998;7.788;2023-08-01T07:41:05;22.70;76.90
11426;DHT22;5769;47.998;7.788;2023-08-01T07:43:32;22.70;76.90
11426;DHT22;5769;47.998;7.788;2023-08-01T07:46:00;22.60;76.90
11426;DHT22;5769;47.998;7.788;2023-08-01T07:48:26;22.60;76.90
11426;DHT22;5769;47.998;7.788;2023-08-01T07:50:53;22.70;76.90
11426;DHT22;5769;47.998;7.788;2023-08-01T07:53:20;22.60;76.90
11426;DHT22;5769;47.998;7.788;2023-08-01T07:55:48;22.60;76.80
11426;DHT22;5769;47.998;7.788;2023-08-01T07:58:16;22.70;76.80
11426;DHT22;5769;47.998;7.788;2023-08-01T08:00:42;22.60;76.80
11426;DHT22;5769;47.998;7.788;2023-08-01T08:03:09;22.60;76.80
11426;DHT22;5769;47.998;7.788;2023-08-01T08:05:36;22.60;76.40
11426;DHT22;5769;47.998;7.788;2023-08-01T08:08:04;22.60;76.50
11426;DHT22;5769;47.998;7.788;2023-08-01T08:10:31;22.60;76.60
11426;DHT22;5769;47.998;7.788;2023-08-01T08:12:59;22.70;77.40
11426;DHT22;5769;47.998;7.788;2023-08-01T08:15:26;22.60;76.60
11426;DHT22;5769;47.998;7.788;2023-08-01T08:17:55;22.70;77.00
11426;DHT22;5769;47.998;7.788;2023-08-01T08:20:21;22.60;77.10
11426;DHT22;5769;47.998;7.788;2023-08-01T08:22:48;22.60;76.90
11426;DHT22;5769;47.998;7.788;2023-08-01T08:25:15;22.70;77.10
11426;DHT22;5769;47.998;7.788;2023-08-01T08:27:41;22.60;77.50
11426;DHT22;5769;47.998;7.788;2023-08-01T08:30:10;22.60;77.60
11426;DHT22;5769;47.998;7.788;2023-08-01T08:32:37;22.60;77.60
11426;DHT22;5769;47.998;7.788;2023-08-01T08:35:04;22.70;77.70
11426;DHT22;5769;47.998;7.788;2023-08-01T08:37:31;22.60;77.60
11426;DHT22;5769;47.998;7.788;2023-08-01T08:39:57;22.60;77.70
11426;DHT22;5769;47.998;7.788;2023-08-01T08:42:24;22.60;77.80
11426;DHT22;5769;47.998;7.788;2023-08-01T08:44:55;22.70;77.80
11426;DHT22;5769;47.998;7.788;2023-08-01T08:47:25;22.60;77.70
11426;DHT22;5769;47.998;7.788;2023-08-01T08:49:55;22.60;77.80
11426;DHT22;5769;47.998;7.788;2023-08-01T08:52:22;22.60;77.70
11426;DHT22;5769;47.998;7.788;2023-08-01T08:54:49;22.60;77.70
11426;DHT22;5769;47.998;7.788;2023-08-01T08:57:16;22.70;77.80
11426;DHT22;5769;47.998;7.788;2023-08-01T08:59:43;22.70;77.90
11426;DHT22;5769;47.998;7.788;2023-08-01T09:02:11;22.60;77.80
11426;DHT22;5769;47.998;7.788;2023-08-01T09:04:39;22.80;78.00
11426;DHT22;5769;47.998;7.788;2023-08-01T09:07:08;22.80;78.10
11426;DHT22;5769;47.998;7.788;2023-08-01T09:09:36;22.60;78.00
11426;DHT22;5769;47.998;7.788;2023-08-01T09:12:03;22.60;78.10
11426;DHT22;5769;47.998;7.788;2023-08-01T09:14:30;22.70;78.20
11426;DHT22;5769;47.998;7.788;2023-08-01T09:17:06;22.60;78.30
11426;DHT22;5769;47.998;7.788;2023-08-01T09:19:33;22.80;78.40
11426;DHT22;5769;47.998;7.788;2023-08-01T09:22:01;22.80;78.50
11426;DHT22;5769;47.998;7.788;2023-08-01T09:24:28;22.70;78.50
11426;DHT22;5769;47.998;7.788;2023-08-01T09:27:02;22.60;78.30
11426;DHT22;5769;47.998;7.788;2023-08-01T09:29:29;22.70;78.50
11426;DHT22;5769;47.998;7.788;2023-08-01T09:31:58;22.60;78.40
11426;DHT22;5769;47.998;7.788;2023-08-01T09:34:26;22.80;78.60
11426;DHT22;5769;47.998;7.788;2023-08-01T09:36:58;22.80;78.50
11426;DHT22;5769;47.998;7.788;2023-08-01T09:39:27;22.70;78.50
11426;DHT22;5769;47.998;7.788;2023-08-01T09:41:57;22.60;78.40
11426;DHT22;5769;47.998;7.788;2023-08-01T09:44:25;22.60;78.50
11426;DHT22;5769;47.998;7.788;2023-08-01T09:46:56;22.60;78.50
11426;DHT22;5769;47.998;7.788;2023-08-01T09:49:23;22.60;78.60
11426;DHT22;5769;47.998;7.788;2023-08-01T09:51:50;22.60;78.60
11426;DHT22;5769;47.998;7.788;2023-08-01T09:54:18;22.60;78.50
11426;DHT22;5769;47.998;7.788;2023-08-01T09:56:47;22.70;78.60
11426;DHT22;5769;47.998;7.788;2023-08-01T09:59:17;22.80;78.70
11426;DHT22;5769;47.998;7.788;2023-08-01T10:01:48;22.70;78.60
11426;DHT22;5769;47.998;7.788;2023-08-01T10:04:18;22.60;78.70
11426;DHT22;5769;47.998;7.788;2023-08-01T10:06:48;22.70;78.70
11426;DHT22;5769;47.998;7.788;2023-08-01T10:09:16;22.80;78.80
11426;DHT22;5769;47.998;7.788;2023-08-01T10:11:45;22.70;78.80
11426;DHT22;5769;47.998;7.788;2023-08-01T10:14:12;22.60;78.70
11426;DHT22;5769;47.998;7.788;2023-08-01T10:16:39;22.80;78.80
11426;DHT22;5769;47.998;7.788;2023-08-01T10:19:08;22.70;78.80
11426;DHT22;5769;47.998;7.788;2023-08-01T10:21:37;22.70;78.80
11426;DHT22;5769;47.998;7.788;2023-08-01T10:24:05;22.60;78.70
11426;DHT22;5769;47.998;7.788;2023-08-01T10:26:33;22.80;78.80
11426;DHT22;5769;47.998;7.788;2023-08-01T10:29:01;22.60;78.70
11426;DHT22;5769;47.998;7.788;2023-08-01T10:31:28;22.70;79.50
11426;DHT22;5769;47.998;7.788;2023-08-01T10:34:04;22.70;78.80
11426;DHT22;5769;47.998;7.788;2023-08-01T10:36:31;22.60;78.60
11426;DHT22;5769;47.998;7.788;2023-08-01T10:39:00;22.60;78.70
11426;DHT22;5769;47.998;7.788;2023-08-01T10:41:28;22.60;78.70
11426;DHT22;5769;47.998;7.788;2023-08-01T10:44:07;22.70;78.80
11426;DHT22;5769;47.998;7.788;2023-08-01T10:46:47;22.60;78.70
11426;DHT22;5769;47.998;7.788;2023-08-01T10:49:15;22.60;78.70
11426;DHT22;5769;47.998;7.788;2023-08-01T10:51:42;22.60;78.70
11426;DHT22;5769;47.998;7.788;2023-08-01T10:54:18;22.60;78.70
11426;DHT22;5769;47.998;7.788;2023-08-01T10:56:46;22.60;78.80
11426;DHT22;5769;47.998;7.788;2023-08-01T10:59:15;22.60;78.70
11426;DHT22;5769;47.998;7.788;2023-08-01T11:01:44;22.70;78.80
11426;DHT22;5769;47.998;7.788;2023-08-01T11:04:14;22.60;78.70
11426;DHT22;5769;47.998;7.788;2023-08-01T11:06:48;22.70;78.80
11426;DHT22;5769;47.998;7.788;2023-08-01T11:09:17;22.60;78.80
11426;DHT22;5769;47.998;7.788;2023-08-01T11:11:44;22.80;79.00
11426;DHT22;5769;47.998;7.788;2023-08-01T11:14:11;22.70;78.90
11426;DHT22;5769;47.998;7.788;2023-08-01T11:16:40;22.60;78.80
11426;DHT22;5769;47.998;7.788;2023-08-01T11:19:17;22.70;78.90
11426;DHT22;5769;47.998;7.788;2023-08-01T11:21:44;22.70;78.90
11426;DHT22;5769;47.998;7.788;2023-08-01T11:24:11;22.70;78.90
11426;DHT22;5769;47.998;7.788;2023-08-01T11:26:40;22.60;78.90
11426;DHT22;5769;47.998;7.788;2023-08-01T11:29:07;22.70;78.90
11426;DHT22;5769;47.998;7.788;2023-08-01T11:31:34;22.60;79.00
11426;DHT22;5769;47.998;7.788;2023-08-01T11:34:02;22.60;79.00
11426;DHT22;5769;47.998;7.788;2023-08-01T11:36:29;22.60;79.00
11426;DHT22;5769;47.998;7.788;2023-08-01T11:38:57;22.60;78.90
11426;DHT22;5769;47.998;7.788;2023-08-01T11:41:25;22.70;78.90
11426;DHT22;5769;47.998;7.788;2023-08-01T11:43:52;22.60;79.00
11426;DHT22;5769;47.998;7.788;2023-08-01T11:46:20;22.60;78.90
11426;DHT22;5769;47.998;7.788;2023-08-01T11:48:47;22.60;78.80
11426;DHT22;5769;47.998;7.788;2023-08-01T11:51:16;22.60;78.90
11426;DHT22;5769;47.998;7.788;2023-08-01T11:53:43;22.60;78.90
11426;DHT22;5769;47.998;7.788;2023-08-01T11:56:20;22.60;78.90
11426;DHT22;5769;47.998;7.788;2023-08-01T11:58:47;22.60;78.90
11426;DHT22;5769;47.998;7.788;2023-08-01T12:01:14;22.70;78.90
11426;DHT22;5769;47.998;7.788;2023-08-01T12:03:44;22.70;78.90
11426;DHT22;5769;47.998;7.788;2023-08-01T12:06:12;22.70;79.00
11426;DHT22;5769;47.998;7.788;2023-08-01T12:08:42;22.60;78.90
11426;DHT22;5769;47.998;7.788;2023-08-01T12:11:18;22.80;79.00
11426;DHT22;5769;47.998;7.788;2023-08-01T12:13:45;22.60;78.80
11426;DHT22;5769;47.998;7.788;2023-08-01T12:16:12;22.70;78.90
11426;DHT22;5769;47.998;7.788;2023-08-01T12:18:41;22.60;78.70
11426;DHT22;5769;47.998;7.788;2023-08-01T12:21:08;22.80;78.80
11426;DHT22;5769;47.998;7.788;2023-08-01T12:23:36;22.60;78.70
11426;DHT22;5769;47.998;7.788;2023-08-01T12:26:04;22.70;78.90
11426;DHT22;5769;47.998;7.788;2023-08-01T12:28:30;22.60;78.80
11426;DHT22;5769;47.998;7.788;2023-08-01T12:30:57;22.60;78.90
11426;DHT22;5769;47.998;7.788;2023-08-01T12:33:24;22.70;78.90
11426;DHT22;5769;47.998;7.788;2023-08-01T12:35:51;22.60;78.80
11426;DHT22;5769;47.998;7.788;2023-08-01T12:38:17;22.70;78.90
11426;DHT22;5769;47.998;7.788;2023-08-01T12:40:44;22.60;78.80
11426;DHT22;5769;47.998;7.788;2023-08-01T12:43:13;22.70;78.80
11426;DHT22;5769;47.998;7.788;2023-08-01T12:45:42;22.60;78.70
11426;DHT22;5769;47.998;7.788;2023-08-01T12:48:08;22.60;78.70
11426;DHT22;5769;47.998;7.788;2023-08-01T12:50:35;22.70;78.90
11426;DHT22;5769;47.998;7.788;2023-08-01T12:53:02;22.50;78.70
11426;DHT22;5769;47.998;7.788;2023-08-01T12:55:28;22.70;78.80
11426;DHT22;5769;47.998;7.788;2023-08-01T12:57:55;22.80;78.90
11426;DHT22;5769;47.998;7.788;2023-08-01T13:00:23;22.70;78.90
11426;DHT22;5769;47.998;7.788;2023-08-01T13:02:50;22.50;78.60
11426;DHT22;5769;47.998;7.788;2023-08-01T13:05:16;22.60;78.70
11426;DHT22;5769;47.998;7.788;2023-08-01T13:07:43;22.60;78.70
11426;DHT22;5769;47.998;7.788;2023-08-01T13:10:10;22.70;78.80
11426;DHT22;5769;47.998;7.788;2023-08-01T13:12:36;22.60;78.70
11426;DHT22;5769;47.998;7.788;2023-08-01T13:15:04;22.70;78.80
11426;DHT22;5769;47.998;7.788;2023-08-01T13:17:32;22.70;78.80
11426;DHT22;5769;47.998;7.788;2023-08-01T13:19:59;22.70;78.80
11426;DHT22;5769;47.998;7.788;2023-08-01T13:22:26;22.70;78.80
11426;DHT22;5769;47.998;7.788;2023-08-01T13:24:52;22.70;78.80
11426;DHT22;5769;47.998;7.788;2023-08-01T13:27:19;22.60;78.80
11426;DHT22;5769;47.998;7.788;2023-08-01T13:29:46;22.60;78.70
11426;DHT22;5769;47.998;7.788;2023-08-01T13:32:15;22.60;78.70
11426;DHT22;5769;47.998;7.788;2023-08-01T13:34:43;22.60;78.70
11426;DHT22;5769;47.998;7.788;2023-08-01T13:37:10;22.60;78.70
11426;DHT22;5769;47.998;7.788;2023-08-01T13:39:38;22.60;78.70
11426;DHT22;5769;47.998;7.788;2023-08-01T13:42:08;22.70;78.80
11426;DHT22;5769;47.998;7.788;2023-08-01T13:44:34;22.70;78.80
11426;DHT22;5769;47.998;7.788;2023-08-01T13:47:01;22.70;78.80
11426;DHT22;5769;47.998;7.788;2023-08-01T13:49:29;22.70;78.80
11426;DHT22;5769;47.998;7.788;2023-08-01T13:52:00;22.60;78.70
11426;DHT22;5769;47.998;7.788;2023-08-01T13:54:29;22.70;78.70
11426;DHT22;5769;47.998;7.788;2023-08-01T13:56:56;22.60;78.70
11426;DHT22;5769;47.998;7.788;2023-08-01T13:59:23;22.60;78.70
11426;DHT22;5769;47.998;7.788;2023-08-01T14:01:50;22.70;78.70
11426;DHT22;5769;47.998;7.788;2023-08-01T14:04:17;22.50;78.50
11426;DHT22;5769;47.998;7.788;2023-08-01T14:06:46;22.60;78.50
11426;DHT22;5769;47.998;7.788;2023-08-01T14:09:14;22.60;78.50
11426;DHT22;5769;47.998;7.788;2023-08-01T14:11:42;22.70;78.40
11426;DHT22;5769;47.998;7.788;2023-08-01T14:14:10;22.60;78.70
11426;DHT22;5769;47.998;7.788;2023-08-01T14:16:37;22.50;78.80
11426;DHT22;5769;47.998;7.788;2023-08-01T14:19:03;22.60;79.00
11426;DHT22;5769;47.998;7.788;2023-08-01T14:21:34;22.70;79.00
11426;DHT22;5769;47.998;7.788;2023-08-01T14:24:01;22.60;79.00
11426;DHT22;5769;47.998;7.788;2023-08-01T14:26:31;22.50;78.80
11426;DHT22;5769;47.998;7.788;2023-08-01T14:28:57;22.60;78.80
11426;DHT22;5769;47.998;7.788;2023-08-01T14:31:24;22.70;78.80
11426;DHT22;5769;47.998;7.788;2023-08-01T14:33:52;22.50;78.70
11426;DHT22;5769;47.998;7.788;2023-08-01T14:36:21;22.60;78.60
11426;DHT22;5769;47.998;7.788;2023-08-01T14:38:48;22.70;78.70
11426;DHT22;5769;47.998;7.788;2023-08-01T14:41:21;22.60;78.60
11426;DHT22;5769;47.998;7.788;2023-08-01T14:43:50;22.60;78.70
11426;DHT22;5769;47.998;7.788;2023-08-01T14:46:17;22.60;78.70
11426;DHT22;5769;47.998;7.788;2023-08-01T14:48:45;22.60;78.70
11426;DHT22;5769;47.998;7.788;2023-08-01T14:51:11;22.60;78.80
11426;DHT22;5769;47.998;7.788;2023-08-01T14:53:38;22.70;78.90
11426;DHT22;5769;47.998;7.788;2023-08-01T14:56:06;22.60;78.70
11426;DHT22;5769;47.998;7.788;2023-08-01T14:58:33;22.50;78.70
11426;DHT22;5769;47.998;7.788;2023-08-01T15:01:11;22.60;78.70
11426;DHT22;5769;47.998;7.788;2023-08-01T15:03:38;22.60;78.70
11426;DHT22;5769;47.998;7.788;2023-08-01T15:06:05;22.60;78.70
11426;DHT22;5769;47.998;7.788;2023-08-01T15:08:33;22.60;78.70
11426;DHT22;5769;47.998;7.788;2023-08-01T15:11:03;22.70;78.80
11426;DHT22;5769;47.998;7.788;2023-08-01T15:13:31;22.50;78.70
11426;DHT22;5769;47.998;7.788;2023-08-01T15:15:58;22.60;78.70
11426;DHT22;5769;47.998;7.788;2023-08-01T15:18:27;22.60;78.70
11426;DHT22;5769;47.998;7.788;2023-08-01T15:20:54;22.50;78.70
11426;DHT22;5769;47.998;7.788;2023-08-01T15:23:20;22.60;78.70
11426;DHT22;5769;47.998;7.788;2023-08-01T15:25:54;22.60;78.70
11426;DHT22;5769;47.998;7.788;2023-08-01T15:28:21;22.60;78.70
11426;DHT22;5769;47.998;7.788;2023-08-01T15:30:48;22.70;78.80
11426;DHT22;5769;47.998;7.788;2023-08-01T15:33:16;22.70;78.80
11426;DHT22;5769;47.998;7.788;2023-08-01T15:35:44;22.60;78.70
11426;DHT22;5769;47.998;7.788;2023-08-01T15:38:11;22.60;78.60
11426;DHT22;5769;47.998;7.788;2023-08-01T15:40:38;22.70;78.60
11426;DHT22;5769;47.998;7.788;2023-08-01T15:43:05;22.60;78.50
11426;DHT22;5769;47.998;7.788;2023-08-01T15:45:32;22.50;78.40